sensor_id;sensor_type;location;lat;lon;timestamp;P1;durP1;ratioP1;P2;durP2;ratioP2
20861;SDS011;10591;52.532;13.348;2022-12-07T00:01:37;17.05;;;8.75;;
20861;SDS011;10591;52.532;13.348;2022-12-07T00:04:13;16.17;;;8.57;;
20861;SDS011;10591;52.532;13.348;2022-12-07T00:06:46;16.95;;;9.70;;
20861;SDS011;10591;52.532;13.348;2022-12-07T00:09:19;14.68;;;8.55;;
20861;SDS011;10591;52.532;13.348;2022-12-07T00:11:50;14.07;;;8.70;;
20861;SDS011;10591;52.532;13.348;2022-12-07T00:14:24;14.13;;;8.50;;
20861;SDS011;10591;52.532;13.348;2022-12-07T00:16:54;12.00;;;8.13;;
20861;SDS011;10591;52.532;13.348;2022-12-07T00:19:28;14.80;;;8.70;;
20861;SDS011;10591;52.532;13.348;2022-12-07T00:21:59;12.77;;;8.47;;
20861;SDS011;10591;52.532;13.348;2022-12-07T00:24:30;12.93;;;8.90;;
20861;SDS011;10591;52.532;13.348;2022-12-07T00:27:01;11.75;;;7.47;;
20861;SDS011;10591;52.532;13.348;2022-12-07T00:29:34;14.37;;;8.53;;
20861;SDS011;10591;52.532;13.348;2022-12-07T00:32:07;13.87;;;8.70;;
20861;SDS011;10591;52.532;13.348;2022-12-07T00:34:38;12.43;;;8.50;;
20861;SDS011;10591;52.532;13.348;2022-12-07T00:37:11;11.57;;;8.27;;
20861;SDS011;10591;52.532;13.348;2022-12-07T00:39:43;14.03;;;9.20;;
20861;SDS011;10591;52.532;13.348;2022-12-07T00:42:15;14.97;;;8.70;;
20861;SDS011;10591;52.532;13.348;2022-12-07T00:44:46;15.30;;;8.50;;
20861;SDS011;10591;52.532;13.348;2022-12-07T00:47:17;12.73;;;8.10;;
20861;SDS011;10591;52.532;13.348;2022-12-07T00:49:49;11.63;;;8.27;;
20861;SDS011;10591;52.532;13.348;2022-12-07T00:52:21;12.00;;;8.00;;
20861;SDS011;10591;52.532;13.348;2022-12-07T00:54:51;12.37;;;8.13;;
20861;SDS011;10591;52.532;13.348;2022-12-07T00:57:24;11.00;;;7.70;;
20861;SDS011;10591;52.532;13.348;2022-12-07T00:59:55;11.87;;;8.27;;
20861;SDS011;10591;52.532;13.348;2022-12-07T01:02:27;12.47;;;7.90;;
20861;SDS011;10591;52.532;13.348;2022-12-07T01:04:57;13.23;;;8.07;;
20861;SDS011;10591;52.532;13.348;2022-12-07T01:07:28;11.60;;;7.87;;
20861;SDS011;10591;52.532;13.348;2022-12-07T01:09:58;10.93;;;7.53;;
20861;SDS011;10591;52.532;13.348;2022-12-07T01:12:30;11.50;;;7.63;;
20861;SDS011;10591;52.532;13.348;2022-12-07T01:15:02;11.20;;;7.05;;
20861;SDS011;10591;52.532;13.348;2022-12-07T01:17:33;26.57;;;16.33;;
20861;SDS011;10591;52.532;13.348;2022-12-07T01:20:06;12.97;;;8.03;;
20861;SDS011;10591;52.532;13.348;2022-12-07T01:22:38;11.67;;;7.93;;
20861;SDS011;10591;52.532;13.348;2022-12-07T01:25:10;10.03;;;7.00;;
20861;SDS011;10591;52.532;13.348;2022-12-07T01:27:41;9.73;;;6.67;;
20861;SDS011;10591;52.532;13.348;2022-12-07T01:30:17;11.63;;;8.00;;
20861;SDS011;10591;52.532;13.348;2022-12-07T01:32:51;10.87;;;7.33;;
20861;SDS011;10591;52.532;13.348;2022-12-07T01:35:23;11.07;;;7.30;;
20861;SDS011;10591;52.532;13.348;2022-12-07T01:37:54;9.37;;;7.20;;
20861;SDS011;10591;52.532;13.348;2022-12-07T01:40:26;10.30;;;7.13;;
20861;SDS011;10591;52.532;13.348;2022-12-07T01:42:56;11.23;;;7.13;;
20861;SDS011;10591;52.532;13.348;2022-12-07T01:45:38;8.70;;;6.57;;
20861;SDS011;10591;52.532;13.348;2022-12-07T01:48:13;7.50;;;6.13;;
20861;SDS011;10591;52.532;13.348;2022-12-07T01:50:48;10.03;;;5.87;;
20861;SDS011;10591;52.532;13.348;2022-12-07T01:53:21;7.67;;;5.57;;
20861;SDS011;10591;52.532;13.348;2022-12-07T01:55:54;7.87;;;6.00;;
20861;SDS011;10591;52.532;13.348;2022-12-07T01:58:27;6.77;;;5.30;;
20861;SDS011;10591;52.532;13.348;2022-12-07T02:00:58;9.03;;;5.83;;
20861;SDS011;10591;52.532;13.348;2022-12-07T02:03:34;7.33;;;5.50;;
20861;SDS011;10591;52.532;13.348;2022-12-07T02:06:04;8.43;;;5.77;;
20861;SDS011;10591;52.532;13.348;2022-12-07T02:08:36;6.03;;;5.07;;
20861;SDS011;10591;52.532;13.348;2022-12-07T02:11:07;7.83;;;5.90;;
20861;SDS011;10591;52.532;13.348;2022-12-07T02:13:41;7.57;;;5.60;;
20861;SDS011;10591;52.532;13.348;2022-12-07T02:21:59;7.17;;;5.57;;
20861;SDS011;10591;52.532;13.348;2022-12-07T02:30:00;7.13;;;5.57;;
20861;SDS011;10591;52.532;13.348;2022-12-07T02:32:42;7.10;;;5.10;;
20861;SDS011;10591;52.532;13.348;2022-12-07T02:35:18;8.87;;;6.30;;
20861;SDS011;10591;52.532;13.348;2022-12-07T02:37:53;7.67;;;5.90;;
20861;SDS011;10591;52.532;13.348;2022-12-07T02:43:17;9.97;;;6.67;;
20861;SDS011;10591;52.532;13.348;2022-12-07T02:45:45;9.10;;;6.50;;
20861;SDS011;10591;52.532;13.348;2022-12-07T02:48:17;9.60;;;6.23;;
20861;SDS011;10591;52.532;13.348;2022-12-07T02:50:51;10.23;;;6.60;;
20861;SDS011;10591;52.532;13.348;2022-12-07T02:53:32;9.13;;;6.40;;
20861;SDS011;10591;52.532;13.348;2022-12-07T02:56:07;9.30;;;7.00;;
20861;SDS011;10591;52.532;13.348;2022-12-07T03:04:45;10.63;;;7.07;;
20861;SDS011;10591;52.532;13.348;2022-12-07T03:18:29;11.30;;;7.77;;
20861;SDS011;10591;52.532;13.348;2022-12-07T03:21:03;12.03;;;7.47;;
20861;SDS011;10591;52.532;13.348;2022-12-07T03:23:38;11.17;;;7.73;;
20861;SDS011;10591;52.532;13.348;2022-12-07T03:26:12;12.97;;;8.20;;
20861;SDS011;10591;52.532;13.348;2022-12-07T03:28:45;12.97;;;7.67;;
20861;SDS011;10591;52.532;13.348;2022-12-07T03:36:40;14.23;;;8.93;;
20861;SDS011;10591;52.532;13.348;2022-12-07T03:42:03;13.43;;;8.43;;
20861;SDS011;10591;52.532;13.348;2022-12-07T03:44:36;15.63;;;8.73;;
20861;SDS011;10591;52.532;13.348;2022-12-07T03:47:16;14.70;;;9.27;;
20861;SDS011;10591;52.532;13.348;2022-12-07T03:49:50;12.70;;;8.87;;
20861;SDS011;10591;52.532;13.348;2022-12-07T03:52:25;13.75;;;9.23;;
20861;SDS011;10591;52.532;13.348;2022-12-07T03:55:10;12.40;;;8.43;;
20861;SDS011;10591;52.532;13.348;2022-12-07T03:58:09;14.17;;;9.17;;
20861;SDS011;10591;52.532;13.348;2022-12-07T04:00:43;14.70;;;9.23;;
20861;SDS011;10591;52.532;13.348;2022-12-07T04:03:14;14.17;;;9.33;;
20861;SDS011;10591;52.532;13.348;2022-12-07T04:05:45;15.17;;;9.53;;
20861;SDS011;10591;52.532;13.348;2022-12-07T04:08:16;16.57;;;9.87;;
20861;SDS011;10591;52.532;13.348;2022-12-07T04:10:48;13.20;;;8.70;;
20861;SDS011;10591;52.532;13.348;2022-12-07T04:13:20;16.43;;;9.73;;
20861;SDS011;10591;52.532;13.348;2022-12-07T04:15:50;14.80;;;9.40;;
20861;SDS011;10591;52.532;13.348;2022-12-07T04:18:22;14.85;;;9.43;;
20861;SDS011;10591;52.532;13.348;2022-12-07T04:20:55;16.83;;;10.43;;
20861;SDS011;10591;52.532;13.348;2022-12-07T04:23:25;17.63;;;10.50;;
20861;SDS011;10591;52.532;13.348;2022-12-07T04:25:58;17.07;;;10.65;;
20861;SDS011;10591;52.532;13.348;2022-12-07T04:28:31;17.83;;;10.60;;
20861;SDS011;10591;52.532;13.348;2022-12-07T04:31:01;19.07;;;11.03;;
20861;SDS011;10591;52.532;13.348;2022-12-07T04:33:34;17.57;;;11.03;;
20861;SDS011;10591;52.532;13.348;2022-12-07T04:36:05;19.93;;;11.80;;
20861;SDS011;10591;52.532;13.348;2022-12-07T04:38:36;17.60;;;11.93;;
20861;SDS011;10591;52.532;13.348;2022-12-07T04:41:09;19.63;;;12.57;;
20861;SDS011;10591;52.532;13.348;2022-12-07T04:43:40;20.93;;;11.70;;
20861;SDS011;10591;52.532;13.348;2022-12-07T04:46:14;22.33;;;13.20;;
20861;SDS011;10591;52.532;13.348;2022-12-07T04:48:44;19.57;;;12.33;;
20861;SDS011;10591;52.532;13.348;2022-12-07T04:51:19;21.50;;;12.53;;
20861;SDS011;10591;52.532;13.348;2022-12-07T04:53:54;22.47;;;12.50;;
20861;SDS011;10591;52.532;13.348;2022-12-07T04:56:28;20.20;;;12.13;;
20861;SDS011;10591;52.532;13.348;2022-12-07T04:58:59;24.33;;;14.43;;
20861;SDS011;10591;52.532;13.348;2022-12-07T05:01:31;23.50;;;13.67;;
20861;SDS011;10591;52.532;13.348;2022-12-07T05:04:04;22.60;;;13.73;;
20861;SDS011;10591;52.532;13.348;2022-12-07T05:06:36;23.53;;;13.10;;
20861;SDS011;10591;52.532;13.348;2022-12-07T05:09:07;28.40;;;14.70;;
20861;SDS011;10591;52.532;13.348;2022-12-07T05:11:40;24.07;;;14.50;;
20861;SDS011;10591;52.532;13.348;2022-12-07T05:14:14;26.93;;;15.40;;
20861;SDS011;10591;52.532;13.348;2022-12-07T05:16:49;25.88;;;15.00;;
20861;SDS011;10591;52.532;13.348;2022-12-07T05:19:20;27.47;;;15.47;;
20861;SDS011;10591;52.532;13.348;2022-12-07T05:21:51;28.33;;;14.90;;
20861;SDS011;10591;52.532;13.348;2022-12-07T05:24:25;29.50;;;16.00;;
20861;SDS011;10591;52.532;13.348;2022-12-07T05:26:55;28.83;;;16.40;;
20861;SDS011;10591;52.532;13.348;2022-12-07T05:29:26;29.30;;;14.67;;
20861;SDS011;10591;52.532;13.348;2022-12-07T05:31:56;26.67;;;15.13;;
20861;SDS011;10591;52.532;13.348;2022-12-07T05:34:28;25.52;;;14.83;;
20861;SDS011;10591;52.532;13.348;2022-12-07T05:36:59;27.83;;;16.07;;
20861;SDS011;10591;52.532;13.348;2022-12-07T05:39:29;30.40;;;16.80;;
20861;SDS011;10591;52.532;13.348;2022-12-07T05:42:00;28.80;;;16.05;;
20861;SDS011;10591;52.532;13.348;2022-12-07T05:44:45;28.23;;;15.90;;
20861;SDS011;10591;52.532;13.348;2022-12-07T05:47:16;31.93;;;16.80;;
20861;SDS011;10591;52.532;13.348;2022-12-07T05:49:49;30.23;;;16.70;;
20861;SDS011;10591;52.532;13.348;2022-12-07T05:52:19;30.95;;;16.62;;
20861;SDS011;10591;52.532;13.348;2022-12-07T05:54:50;32.20;;;16.10;;
20861;SDS011;10591;52.532;13.348;2022-12-07T05:57:21;28.30;;;16.77;;
20861;SDS011;10591;52.532;13.348;2022-12-07T05:59:52;29.13;;;16.40;;
20861;SDS011;10591;52.532;13.348;2022-12-07T06:02:22;31.43;;;16.83;;
20861;SDS011;10591;52.532;13.348;2022-12-07T06:04:53;29.10;;;16.53;;
20861;SDS011;10591;52.532;13.348;2022-12-07T06:07:23;30.40;;;16.03;;
20861;SDS011;10591;52.532;13.348;2022-12-07T06:09:54;28.07;;;16.50;;
20861;SDS011;10591;52.532;13.348;2022-12-07T06:12:25;29.30;;;16.37;;
20861;SDS011;10591;52.532;13.348;2022-12-07T06:15:04;28.87;;;15.83;;
20861;SDS011;10591;52.532;13.348;2022-12-07T06:17:36;28.37;;;15.87;;
20861;SDS011;10591;52.532;13.348;2022-12-07T06:20:07;29.20;;;15.80;;
20861;SDS011;10591;52.532;13.348;2022-12-07T06:22:37;28.33;;;16.20;;
20861;SDS011;10591;52.532;13.348;2022-12-07T06:25:08;26.43;;;16.33;;
20861;SDS011;10591;52.532;13.348;2022-12-07T06:27:42;29.17;;;15.77;;
20861;SDS011;10591;52.532;13.348;2022-12-07T06:30:13;26.47;;;15.43;;
20861;SDS011;10591;52.532;13.348;2022-12-07T06:32:44;27.60;;;15.53;;
20861;SDS011;10591;52.532;13.348;2022-12-07T06:35:16;23.87;;;13.87;;
20861;SDS011;10591;52.532;13.348;2022-12-07T06:37:48;24.60;;;14.30;;
20861;SDS011;10591;52.532;13.348;2022-12-07T06:40:21;27.05;;;15.18;;
20861;SDS011;10591;52.532;13.348;2022-12-07T06:42:53;28.27;;;15.13;;
20861;SDS011;10591;52.532;13.348;2022-12-07T06:45:24;26.93;;;14.60;;
20861;SDS011;10591;52.532;13.348;2022-12-07T06:47:54;29.75;;;16.37;;
20861;SDS011;10591;52.532;13.348;2022-12-07T06:50:26;25.63;;;15.30;;
20861;SDS011;10591;52.532;13.348;2022-12-07T06:52:59;29.20;;;16.15;;
20861;SDS011;10591;52.532;13.348;2022-12-07T06:55:31;28.67;;;16.00;;
20861;SDS011;10591;52.532;13.348;2022-12-07T06:58:02;29.47;;;15.90;;
20861;SDS011;10591;52.532;13.348;2022-12-07T07:00:32;28.30;;;16.40;;
20861;SDS011;10591;52.532;13.348;2022-12-07T07:03:03;30.10;;;17.07;;
20861;SDS011;10591;52.532;13.348;2022-12-07T07:05:34;31.07;;;17.13;;
20861;SDS011;10591;52.532;13.348;2022-12-07T07:08:10;31.48;;;16.57;;
20861;SDS011;10591;52.532;13.348;2022-12-07T07:10:42;32.30;;;17.20;;
20861;SDS011;10591;52.532;13.348;2022-12-07T07:13:12;30.87;;;17.10;;
20861;SDS011;10591;52.532;13.348;2022-12-07T07:15:46;31.13;;;16.87;;
20861;SDS011;10591;52.532;13.348;2022-12-07T07:18:16;27.90;;;15.90;;
20861;SDS011;10591;52.532;13.348;2022-12-07T07:20:47;29.03;;;16.40;;
20861;SDS011;10591;52.532;13.348;2022-12-07T07:23:18;31.80;;;16.33;;
20861;SDS011;10591;52.532;13.348;2022-12-07T07:25:49;28.33;;;16.63;;
20861;SDS011;10591;52.532;13.348;2022-12-07T07:28:21;30.37;;;15.90;;
20861;SDS011;10591;52.532;13.348;2022-12-07T07:30:52;27.30;;;15.73;;
20861;SDS011;10591;52.532;13.348;2022-12-07T07:33:23;28.50;;;16.40;;
20861;SDS011;10591;52.532;13.348;2022-12-07T07:35:55;24.57;;;15.00;;
20861;SDS011;10591;52.532;13.348;2022-12-07T07:38:26;25.10;;;14.57;;
20861;SDS011;10591;52.532;13.348;2022-12-07T07:40:57;23.98;;;14.38;;
20861;SDS011;10591;52.532;13.348;2022-12-07T07:43:30;24.67;;;13.20;;
20861;SDS011;10591;52.532;13.348;2022-12-07T07:46:03;21.83;;;12.73;;
20861;SDS011;10591;52.532;13.348;2022-12-07T07:48:34;23.22;;;12.98;;
20861;SDS011;10591;52.532;13.348;2022-12-07T07:51:05;22.82;;;13.10;;
20861;SDS011;10591;52.532;13.348;2022-12-07T07:53:37;22.03;;;13.23;;
20861;SDS011;10591;52.532;13.348;2022-12-07T07:56:08;23.32;;;12.93;;
20861;SDS011;10591;52.532;13.348;2022-12-07T07:58:39;20.93;;;12.43;;
20861;SDS011;10591;52.532;13.348;2022-12-07T08:01:09;18.63;;;11.90;;
20861;SDS011;10591;52.532;13.348;2022-12-07T08:03:41;21.27;;;12.00;;
20861;SDS011;10591;52.532;13.348;2022-12-07T08:06:11;14.73;;;9.87;;
20861;SDS011;10591;52.532;13.348;2022-12-07T08:11:19;17.37;;;9.90;;
20861;SDS011;10591;52.532;13.348;2022-12-07T08:13:51;14.40;;;9.33;;
20861;SDS011;10591;52.532;13.348;2022-12-07T08:16:22;16.53;;;9.07;;
20861;SDS011;10591;52.532;13.348;2022-12-07T08:18:54;13.43;;;8.18;;
20861;SDS011;10591;52.532;13.348;2022-12-07T08:21:26;15.77;;;8.33;;
20861;SDS011;10591;52.532;13.348;2022-12-07T08:24:00;13.60;;;8.27;;
20861;SDS011;10591;52.532;13.348;2022-12-07T08:26:30;16.50;;;7.80;;
20861;SDS011;10591;52.532;13.348;2022-12-07T08:29:02;11.60;;;7.60;;
20861;SDS011;10591;52.532;13.348;2022-12-07T08:31:33;8.97;;;6.57;;
20861;SDS011;10591;52.532;13.348;2022-12-07T08:34:03;8.43;;;6.63;;
20861;SDS011;10591;52.532;13.348;2022-12-07T08:36:34;10.87;;;6.40;;
20861;SDS011;10591;52.532;13.348;2022-12-07T08:39:06;9.37;;;6.20;;
20861;SDS011;10591;52.532;13.348;2022-12-07T08:41:38;9.40;;;6.17;;
20861;SDS011;10591;52.532;13.348;2022-12-07T08:44:09;6.53;;;5.35;;
20861;SDS011;10591;52.532;13.348;2022-12-07T08:46:41;6.70;;;4.93;;
20861;SDS011;10591;52.532;13.348;2022-12-07T08:49:22;5.50;;;4.00;;
20861;SDS011;10591;52.532;13.348;2022-12-07T08:51:51;5.43;;;4.17;;
20861;SDS011;10591;52.532;13.348;2022-12-07T08:54:22;5.50;;;3.87;;
20861;SDS011;10591;52.532;13.348;2022-12-07T08:56:55;4.53;;;3.93;;
20861;SDS011;10591;52.532;13.348;2022-12-07T08:59:27;4.37;;;3.40;;
20861;SDS011;10591;52.532;13.348;2022-12-07T09:01:59;4.17;;;3.40;;
20861;SDS011;10591;52.532;13.348;2022-12-07T09:04:31;5.65;;;3.40;;
20861;SDS011;10591;52.532;13.348;2022-12-07T09:07:03;3.75;;;3.10;;
20861;SDS011;10591;52.532;13.348;2022-12-07T09:09:35;4.10;;;3.10;;
20861;SDS011;10591;52.532;13.348;2022-12-07T09:12:05;3.93;;;3.13;;
20861;SDS011;10591;52.532;13.348;2022-12-07T09:14:36;4.13;;;2.33;;
20861;SDS011;10591;52.532;13.348;2022-12-07T09:17:08;3.70;;;3.00;;
20861;SDS011;10591;52.532;13.348;2022-12-07T09:19:40;3.70;;;3.03;;
20861;SDS011;10591;52.532;13.348;2022-12-07T09:22:13;2.67;;;2.17;;
20861;SDS011;10591;52.532;13.348;2022-12-07T09:24:44;3.17;;;2.87;;
20861;SDS011;10591;52.532;13.348;2022-12-07T09:27:16;3.50;;;3.03;;
20861;SDS011;10591;52.532;13.348;2022-12-07T09:29:50;4.00;;;2.80;;
20861;SDS011;10591;52.532;13.348;2022-12-07T09:32:21;3.80;;;3.10;;
20861;SDS011;10591;52.532;13.348;2022-12-07T09:34:54;3.40;;;3.10;;
20861;SDS011;10591;52.532;13.348;2022-12-07T09:37:26;4.77;;;3.17;;
20861;SDS011;10591;52.532;13.348;2022-12-07T09:40:02;3.80;;;3.30;;
20861;SDS011;10591;52.532;13.348;2022-12-07T09:42:39;4.77;;;3.10;;
20861;SDS011;10591;52.532;13.348;2022-12-07T09:45:18;3.13;;;2.87;;
20861;SDS011;10591;52.532;13.348;2022-12-07T09:47:55;4.07;;;3.40;;
20861;SDS011;10591;52.532;13.348;2022-12-07T09:50:27;3.40;;;2.67;;
20861;SDS011;10591;52.532;13.348;2022-12-07T09:53:06;4.67;;;2.80;;
20861;SDS011;10591;52.532;13.348;2022-12-07T09:55:38;4.00;;;2.70;;
20861;SDS011;10591;52.532;13.348;2022-12-07T09:58:22;2.80;;;2.60;;
20861;SDS011;10591;52.532;13.348;2022-12-07T10:00:58;5.57;;;3.03;;
20861;SDS011;10591;52.532;13.348;2022-12-07T10:03:41;4.90;;;2.60;;
20861;SDS011;10591;52.532;13.348;2022-12-07T10:06:13;2.93;;;2.60;;
20861;SDS011;10591;52.532;13.348;2022-12-07T10:08:46;4.93;;;2.20;;
20861;SDS011;10591;52.532;13.348;2022-12-07T10:11:16;3.17;;;2.30;;
20861;SDS011;10591;52.532;13.348;2022-12-07T10:13:52;4.00;;;3.00;;
20861;SDS011;10591;52.532;13.348;2022-12-07T10:16:35;3.50;;;2.47;;
20861;SDS011;10591;52.532;13.348;2022-12-07T10:19:47;2.93;;;2.50;;
20861;SDS011;10591;52.532;13.348;2022-12-07T10:22:09;3.20;;;2.60;;
20861;SDS011;10591;52.532;13.348;2022-12-07T10:24:43;3.27;;;2.57;;
20861;SDS011;10591;52.532;13.348;2022-12-07T10:29:53;2.67;;;2.47;;
20861;SDS011;10591;52.532;13.348;2022-12-07T10:32:27;3.77;;;2.93;;
20861;SDS011;10591;52.532;13.348;2022-12-07T10:37:54;4.73;;;3.77;;
20861;SDS011;10591;52.532;13.348;2022-12-07T10:40:34;4.10;;;3.30;;
20861;SDS011;10591;52.532;13.348;2022-12-07T10:48:38;3.40;;;3.10;;
20861;SDS011;10591;52.532;13.348;2022-12-07T10:51:10;4.80;;;4.00;;
20861;SDS011;10591;52.532;13.348;2022-12-07T10:53:44;4.73;;;3.90;;
20861;SDS011;10591;52.532;13.348;2022-12-07T11:04:24;5.40;;;4.37;;
20861;SDS011;10591;52.532;13.348;2022-12-07T11:13:25;7.77;;;5.40;;
20861;SDS011;10591;52.532;13.348;2022-12-07T11:16:02;9.57;;;6.20;;
20861;SDS011;10591;52.532;13.348;2022-12-07T11:21:42;9.70;;;6.60;;
20861;SDS011;10591;52.532;13.348;2022-12-07T11:24:16;7.67;;;5.80;;
20861;SDS011;10591;52.532;13.348;2022-12-07T11:27:00;7.57;;;5.50;;
20861;SDS011;10591;52.532;13.348;2022-12-07T11:35:21;6.13;;;4.73;;
20861;SDS011;10591;52.532;13.348;2022-12-07T11:38:01;6.03;;;4.83;;
20861;SDS011;10591;52.532;13.348;2022-12-07T11:40:34;15.80;;;8.60;;
20861;SDS011;10591;52.532;13.348;2022-12-07T11:46:03;13.77;;;7.40;;
20861;SDS011;10591;52.532;13.348;2022-12-07T11:48:40;16.57;;;7.37;;
20861;SDS011;10591;52.532;13.348;2022-12-07T11:51:12;6.63;;;5.17;;
20861;SDS011;10591;52.532;13.348;2022-12-07T11:53:55;6.30;;;4.83;;
20861;SDS011;10591;52.532;13.348;2022-12-07T11:56:25;7.27;;;5.43;;
20861;SDS011;10591;52.532;13.348;2022-12-07T11:59:07;5.63;;;4.50;;
20861;SDS011;10591;52.532;13.348;2022-12-07T12:01:36;6.70;;;4.57;;
20861;SDS011;10591;52.532;13.348;2022-12-07T12:06:44;6.57;;;5.27;;
20861;SDS011;10591;52.532;13.348;2022-12-07T12:09:16;6.77;;;5.00;;
20861;SDS011;10591;52.532;13.348;2022-12-07T12:12:01;7.27;;;5.07;;
20861;SDS011;10591;52.532;13.348;2022-12-07T12:20:32;11.07;;;4.47;;
20861;SDS011;10591;52.532;13.348;2022-12-07T12:23:22;4.63;;;3.83;;
20861;SDS011;10591;52.532;13.348;2022-12-07T12:26:19;7.00;;;4.00;;
20861;SDS011;10591;52.532;13.348;2022-12-07T12:28:58;4.60;;;3.70;;
20861;SDS011;10591;52.532;13.348;2022-12-07T12:31:33;4.80;;;3.57;;
20861;SDS011;10591;52.532;13.348;2022-12-07T12:37:09;5.78;;;3.65;;
20861;SDS011;10591;52.532;13.348;2022-12-07T12:42:54;6.73;;;3.70;;
20861;SDS011;10591;52.532;13.348;2022-12-07T12:45:27;5.97;;;3.50;;
20861;SDS011;10591;52.532;13.348;2022-12-07T12:48:00;6.60;;;3.50;;
20861;SDS011;10591;52.532;13.348;2022-12-07T12:50:33;6.23;;;3.90;;
20861;SDS011;10591;52.532;13.348;2022-12-07T12:53:19;6.70;;;4.17;;
20861;SDS011;10591;52.532;13.348;2022-12-07T12:56:17;10.53;;;4.20;;
20861;SDS011;10591;52.532;13.348;2022-12-07T12:58:45;6.87;;;4.37;;
20861;SDS011;10591;52.532;13.348;2022-12-07T13:04:25;8.23;;;3.70;;
20861;SDS011;10591;52.532;13.348;2022-12-07T13:07:00;5.40;;;3.03;;
20861;SDS011;10591;52.532;13.348;2022-12-07T13:09:33;6.53;;;3.13;;
20861;SDS011;10591;52.532;13.348;2022-12-07T13:12:05;5.00;;;3.07;;
20861;SDS011;10591;52.532;13.348;2022-12-07T13:14:42;4.03;;;2.97;;
20861;SDS011;10591;52.532;13.348;2022-12-07T13:20:19;5.28;;;3.12;;
20861;SDS011;10591;52.532;13.348;2022-12-07T13:22:43;5.23;;;2.70;;
20861;SDS011;10591;52.532;13.348;2022-12-07T13:25:21;3.35;;;2.90;;
20861;SDS011;10591;52.532;13.348;2022-12-07T13:28:01;6.77;;;3.20;;
20861;SDS011;10591;52.532;13.348;2022-12-07T13:30:44;4.73;;;3.03;;
20861;SDS011;10591;52.532;13.348;2022-12-07T13:33:14;4.20;;;3.13;;
20861;SDS011;10591;52.532;13.348;2022-12-07T13:35:50;6.90;;;2.83;;
20861;SDS011;10591;52.532;13.348;2022-12-07T13:38:29;6.20;;;3.30;;
20861;SDS011;10591;52.532;13.348;2022-12-07T13:41:13;5.40;;;3.17;;
20861;SDS011;10591;52.532;13.348;2022-12-07T13:43:51;6.87;;;3.20;;
20861;SDS011;10591;52.532;13.348;2022-12-07T13:46:30;5.15;;;2.90;;
20861;SDS011;10591;52.532;13.348;2022-12-07T13:49:16;5.10;;;3.50;;
20861;SDS011;10591;52.532;13.348;2022-12-07T13:51:50;4.67;;;3.50;;
20861;SDS011;10591;52.532;13.348;2022-12-07T13:54:23;5.12;;;2.90;;
20861;SDS011;10591;52.532;13.348;2022-12-07T13:56:55;3.62;;;2.80;;
20861;SDS011;10591;52.532;13.348;2022-12-07T13:59:27;3.95;;;3.20;;
20861;SDS011;10591;52.532;13.348;2022-12-07T14:02:00;6.90;;;3.60;;
20861;SDS011;10591;52.532;13.348;2022-12-07T14:04:34;6.83;;;3.30;;
20861;SDS011;10591;52.532;13.348;2022-12-07T14:07:28;5.92;;;3.30;;
20861;SDS011;10591;52.532;13.348;2022-12-07T14:10:04;4.03;;;2.90;;
20861;SDS011;10591;52.532;13.348;2022-12-07T14:12:32;6.27;;;2.93;;
20861;SDS011;10591;52.532;13.348;2022-12-07T14:15:15;6.77;;;3.00;;
20861;SDS011;10591;52.532;13.348;2022-12-07T14:17:54;5.00;;;2.70;;
20861;SDS011;10591;52.532;13.348;2022-12-07T14:20:29;5.87;;;2.80;;
20861;SDS011;10591;52.532;13.348;2022-12-07T14:23:01;5.73;;;3.07;;
20861;SDS011;10591;52.532;13.348;2022-12-07T14:25:33;6.17;;;3.30;;
20861;SDS011;10591;52.532;13.348;2022-12-07T14:28:30;5.73;;;3.60;;
20861;SDS011;10591;52.532;13.348;2022-12-07T14:31:08;4.20;;;3.13;;
20861;SDS011;10591;52.532;13.348;2022-12-07T14:33:48;6.22;;;3.40;;
20861;SDS011;10591;52.532;13.348;2022-12-07T14:36:19;5.40;;;3.10;;
20861;SDS011;10591;52.532;13.348;2022-12-07T14:38:51;7.93;;;3.30;;
20861;SDS011;10591;52.532;13.348;2022-12-07T14:41:25;6.07;;;3.40;;
20861;SDS011;10591;52.532;13.348;2022-12-07T14:44:21;6.90;;;3.43;;
20861;SDS011;10591;52.532;13.348;2022-12-07T14:46:54;6.73;;;3.37;;
20861;SDS011;10591;52.532;13.348;2022-12-07T14:49:27;6.63;;;3.57;;
20861;SDS011;10591;52.532;13.348;2022-12-07T14:51:59;5.00;;;2.83;;
20861;SDS011;10591;52.532;13.348;2022-12-07T14:54:35;4.67;;;3.10;;
20861;SDS011;10591;52.532;13.348;2022-12-07T14:57:07;5.95;;;2.98;;
20861;SDS011;10591;52.532;13.348;2022-12-07T14:59:40;7.10;;;3.20;;
20861;SDS011;10591;52.532;13.348;2022-12-07T15:02:13;4.47;;;3.20;;
20861;SDS011;10591;52.532;13.348;2022-12-07T15:04:49;6.10;;;2.93;;
20861;SDS011;10591;52.532;13.348;2022-12-07T15:07:22;5.90;;;3.27;;
20861;SDS011;10591;52.532;13.348;2022-12-07T15:09:56;4.13;;;2.80;;
20861;SDS011;10591;52.532;13.348;2022-12-07T15:12:32;5.47;;;3.20;;
20861;SDS011;10591;52.532;13.348;2022-12-07T15:15:16;5.73;;;2.67;;
20861;SDS011;10591;52.532;13.348;2022-12-07T15:17:51;6.47;;;3.17;;
20861;SDS011;10591;52.532;13.348;2022-12-07T15:20:27;5.07;;;2.57;;
20861;SDS011;10591;52.532;13.348;2022-12-07T15:23:00;6.83;;;3.23;;
20861;SDS011;10591;52.532;13.348;2022-12-07T15:25:32;5.65;;;2.72;;
20861;SDS011;10591;52.532;13.348;2022-12-07T15:28:05;6.47;;;2.70;;
20861;SDS011;10591;52.532;13.348;2022-12-07T15:30:42;6.53;;;2.93;;
20861;SDS011;10591;52.532;13.348;2022-12-07T15:33:14;5.47;;;3.02;;
20861;SDS011;10591;52.532;13.348;2022-12-07T15:35:46;5.30;;;3.20;;
20861;SDS011;10591;52.532;13.348;2022-12-07T15:38:18;4.70;;;3.30;;
20861;SDS011;10591;52.532;13.348;2022-12-07T15:40:50;4.80;;;2.83;;
20861;SDS011;10591;52.532;13.348;2022-12-07T15:43:21;5.00;;;2.90;;
20861;SDS011;10591;52.532;13.348;2022-12-07T15:46:10;6.10;;;2.77;;
20861;SDS011;10591;52.532;13.348;2022-12-07T15:48:41;5.90;;;2.93;;
20861;SDS011;10591;52.532;13.348;2022-12-07T15:51:12;4.20;;;2.93;;
20861;SDS011;10591;52.532;13.348;2022-12-07T15:53:42;5.57;;;2.57;;
20861;SDS011;10591;52.532;13.348;2022-12-07T15:56:14;6.87;;;3.50;;
20861;SDS011;10591;52.532;13.348;2022-12-07T15:58:45;4.77;;;2.50;;
20861;SDS011;10591;52.532;13.348;2022-12-07T16:01:17;6.33;;;2.80;;
20861;SDS011;10591;52.532;13.348;2022-12-07T16:03:49;6.47;;;2.90;;
20861;SDS011;10591;52.532;13.348;2022-12-07T16:06:20;7.10;;;3.27;;
20861;SDS011;10591;52.532;13.348;2022-12-07T16:08:51;10.80;;;3.47;;
20861;SDS011;10591;52.532;13.348;2022-12-07T16:11:21;6.17;;;3.00;;
20861;SDS011;10591;52.532;13.348;2022-12-07T16:13:54;8.23;;;3.50;;
20861;SDS011;10591;52.532;13.348;2022-12-07T16:16:25;5.17;;;2.87;;
20861;SDS011;10591;52.532;13.348;2022-12-07T16:18:56;7.33;;;3.30;;
20861;SDS011;10591;52.532;13.348;2022-12-07T16:21:34;4.27;;;3.07;;
20861;SDS011;10591;52.532;13.348;2022-12-07T16:24:05;6.57;;;3.20;;
20861;SDS011;10591;52.532;13.348;2022-12-07T16:26:37;4.43;;;3.30;;
20861;SDS011;10591;52.532;13.348;2022-12-07T16:29:15;7.90;;;3.13;;
20861;SDS011;10591;52.532;13.348;2022-12-07T16:31:42;4.23;;;2.70;;
20861;SDS011;10591;52.532;13.348;2022-12-07T16:34:12;4.90;;;3.10;;
20861;SDS011;10591;52.532;13.348;2022-12-07T16:36:44;4.60;;;2.87;;
20861;SDS011;10591;52.532;13.348;2022-12-07T16:39:16;3.33;;;2.80;;
20861;SDS011;10591;52.532;13.348;2022-12-07T16:41:47;6.83;;;2.97;;
20861;SDS011;10591;52.532;13.348;2022-12-07T16:44:17;7.80;;;3.40;;